sensor_id;sensor_type;location;lat;lon;timestamp;P1;durP1;ratioP1;P2;durP2;ratioP2
10309;SDS011;5200;43.236;27.986;2024-02-28T00:00:45;10.30;;;5.90;;
10309;SDS011;5200;43.236;27.986;2024-02-28T00:03:12;12.73;;;6.72;;
10309;SDS011;5200;43.236;27.986;2024-02-28T00:05:39;16.08;;;6.53;;
10309;SDS011;5200;43.236;27.986;2024-02-28T00:08:05;12.45;;;5.80;;
10309;SDS011;5200;43.236;27.986;2024-02-28T00:10:32;14.80;;;6.78;;
10309;SDS011;5200;43.236;27.986;2024-02-28T00:13:01;14.18;;;7.07;;
10309;SDS011;5200;43.236;27.986;2024-02-28T00:15:27;14.40;;;7.05;;
10309;SDS011;5200;43.236;27.986;2024-02-28T00:17:54;17.40;;;7.13;;
10309;SDS011;5200;43.236;27.986;2024-02-28T00:20:21;15.63;;;7.43;;
10309;SDS011;5200;43.236;27.986;2024-02-28T00:22:49;20.15;;;7.35;;
10309;SDS011;5200;43.236;27.986;2024-02-28T00:25:16;25.55;;;8.30;;
10309;SDS011;5200;43.236;27.986;2024-02-28T00:27:43;16.52;;;6.10;;
10309;SDS011;5200;43.236;27.986;2024-02-28T00:30:12;14.45;;;6.82;;
10309;SDS011;5200;43.236;27.986;2024-02-28T00:32:39;13.68;;;6.55;;
10309;SDS011;5200;43.236;27.986;2024-02-28T00:35:06;16.83;;;7.53;;
10309;SDS011;5200;43.236;27.986;2024-02-28T00:37:33;15.30;;;7.28;;
10309;SDS011;5200;43.236;27.986;2024-02-28T00:40:00;14.48;;;6.75;;
10309;SDS011;5200;43.236;27.986;2024-02-28T00:42:28;12.68;;;5.78;;
10309;SDS011;5200;43.236;27.986;2024-02-28T00:44:54;13.95;;;5.82;;
10309;SDS011;5200;43.236;27.986;2024-02-28T00:47:23;8.15;;;5.13;;
10309;SDS011;5200;43.236;27.986;2024-02-28T00:49:49;16.08;;;6.25;;
10309;SDS011;5200;43.236;27.986;2024-02-28T00:52:16;12.02;;;5.60;;
10309;SDS011;5200;43.236;27.986;2024-02-28T00:54:43;17.17;;;5.57;;
10309;SDS011;5200;43.236;27.986;2024-02-28T00:57:10;9.43;;;4.72;;
10309;SDS011;5200;43.236;27.986;2024-02-28T00:59:37;9.57;;;4.82;;
10309;SDS011;5200;43.236;27.986;2024-02-28T01:02:03;16.95;;;6.93;;
10309;SDS011;5200;43.236;27.986;2024-02-28T01:04:32;12.93;;;5.63;;
10309;SDS011;5200;43.236;27.986;2024-02-28T01:06:59;12.93;;;5.85;;
10309;SDS011;5200;43.236;27.986;2024-02-28T01:09:26;13.55;;;6.10;;
10309;SDS011;5200;43.236;27.986;2024-02-28T01:11:53;14.75;;;6.97;;
10309;SDS011;5200;43.236;27.986;2024-02-28T01:14:20;10.63;;;6.03;;
10309;SDS011;5200;43.236;27.986;2024-02-28T01:16:47;17.58;;;6.35;;
10309;SDS011;5200;43.236;27.986;2024-02-28T01:19:15;9.82;;;5.50;;
10309;SDS011;5200;43.236;27.986;2024-02-28T01:21:44;9.90;;;5.03;;
10309;SDS011;5200;43.236;27.986;2024-02-28T01:24:10;11.80;;;5.07;;
10309;SDS011;5200;43.236;27.986;2024-02-28T01:26:37;9.70;;;5.85;;
10309;SDS011;5200;43.236;27.986;2024-02-28T01:29:04;10.25;;;4.85;;
10309;SDS011;5200;43.236;27.986;2024-02-28T01:31:31;12.30;;;5.20;;
10309;SDS011;5200;43.236;27.986;2024-02-28T01:33:58;12.35;;;5.32;;
10309;SDS011;5200;43.236;27.986;2024-02-28T01:36:24;12.55;;;5.90;;
10309;SDS011;5200;43.236;27.986;2024-02-28T01:38:53;13.15;;;5.20;;
10309;SDS011;5200;43.236;27.986;2024-02-28T01:41:20;10.63;;;4.88;;
10309;SDS011;5200;43.236;27.986;2024-02-28T01:43:47;11.00;;;5.78;;
10309;SDS011;5200;43.236;27.986;2024-02-28T01:46:17;10.48;;;4.78;;
10309;SDS011;5200;43.236;27.986;2024-02-28T01:48:48;11.43;;;4.20;;
10309;SDS011;5200;43.236;27.986;2024-02-28T01:51:15;9.85;;;4.40;;
10309;SDS011;5200;43.236;27.986;2024-02-28T01:53:43;12.65;;;5.28;;
10309;SDS011;5200;43.236;27.986;2024-02-28T01:56:12;12.20;;;5.00;;
10309;SDS011;5200;43.236;27.986;2024-02-28T01:58:41;17.33;;;5.30;;
10309;SDS011;5200;43.236;27.986;2024-02-28T02:01:09;16.52;;;4.82;;
10309;SDS011;5200;43.236;27.986;2024-02-28T02:03:37;12.25;;;5.80;;
10309;SDS011;5200;43.236;27.986;2024-02-28T02:06:04;13.77;;;5.15;;
10309;SDS011;5200;43.236;27.986;2024-02-28T02:08:31;16.98;;;6.00;;
10309;SDS011;5200;43.236;27.986;2024-02-28T02:10:59;7.07;;;4.22;;
10309;SDS011;5200;43.236;27.986;2024-02-28T02:13:27;15.93;;;7.90;;
10309;SDS011;5200;43.236;27.986;2024-02-28T02:15:54;11.85;;;5.50;;
10309;SDS011;5200;43.236;27.986;2024-02-28T02:18:20;9.52;;;6.00;;
10309;SDS011;5200;43.236;27.986;2024-02-28T02:20:49;14.65;;;7.45;;
10309;SDS011;5200;43.236;27.986;2024-02-28T02:23:21;11.60;;;6.82;;
10309;SDS011;5200;43.236;27.986;2024-02-28T02:25:48;18.95;;;7.22;;
10309;SDS011;5200;43.236;27.986;2024-02-28T02:28:15;17.42;;;7.38;;
10309;SDS011;5200;43.236;27.986;2024-02-28T02:30:42;15.27;;;5.85;;
10309;SDS011;5200;43.236;27.986;2024-02-28T02:33:10;25.20;;;16.92;;
10309;SDS011;5200;43.236;27.986;2024-02-28T02:35:37;26.42;;;15.50;;
10309;SDS011;5200;43.236;27.986;2024-02-28T02:38:03;18.30;;;7.53;;
10309;SDS011;5200;43.236;27.986;2024-02-28T02:40:32;14.45;;;7.25;;
10309;SDS011;5200;43.236;27.986;2024-02-28T02:42:58;16.50;;;6.72;;
10309;SDS011;5200;43.236;27.986;2024-02-28T02:45:25;21.17;;;7.65;;
10309;SDS011;5200;43.236;27.986;2024-02-28T02:47:52;15.90;;;6.85;;
10309;SDS011;5200;43.236;27.986;2024-02-28T02:50:18;20.08;;;6.95;;
10309;SDS011;5200;43.236;27.986;2024-02-28T02:52:45;14.68;;;6.35;;
10309;SDS011;5200;43.236;27.986;2024-02-28T02:55:12;16.38;;;7.28;;
10309;SDS011;5200;43.236;27.986;2024-02-28T02:57:41;17.48;;;7.22;;
10309;SDS011;5200;43.236;27.986;2024-02-28T03:00:09;15.18;;;7.07;;
10309;SDS011;5200;43.236;27.986;2024-02-28T03:02:36;18.92;;;6.22;;
10309;SDS011;5200;43.236;27.986;2024-02-28T03:05:05;22.48;;;7.55;;
10309;SDS011;5200;43.236;27.986;2024-02-28T03:07:32;17.75;;;6.90;;
10309;SDS011;5200;43.236;27.986;2024-02-28T03:09:59;11.63;;;6.03;;
10309;SDS011;5200;43.236;27.986;2024-02-28T03:12:26;14.85;;;6.82;;
10309;SDS011;5200;43.236;27.986;2024-02-28T03:14:54;17.45;;;7.95;;
10309;SDS011;5200;43.236;27.986;2024-02-28T03:17:21;15.15;;;8.35;;
10309;SDS011;5200;43.236;27.986;2024-02-28T03:19:47;16.33;;;8.43;;
10309;SDS011;5200;43.236;27.986;2024-02-28T03:22:14;19.88;;;10.30;;
10309;SDS011;5200;43.236;27.986;2024-02-28T03:24:41;16.08;;;9.52;;
10309;SDS011;5200;43.236;27.986;2024-02-28T03:27:08;16.20;;;6.07;;
10309;SDS011;5200;43.236;27.986;2024-02-28T03:29:35;20.90;;;7.05;;
10309;SDS011;5200;43.236;27.986;2024-02-28T03:32:04;17.15;;;6.15;;
10309;SDS011;5200;43.236;27.986;2024-02-28T03:34:31;13.80;;;6.72;;
10309;SDS011;5200;43.236;27.986;2024-02-28T03:36:58;15.18;;;6.68;;
10309;SDS011;5200;43.236;27.986;2024-02-28T03:39:24;13.75;;;7.50;;
10309;SDS011;5200;43.236;27.986;2024-02-28T03:41:51;17.25;;;6.90;;
10309;SDS011;5200;43.236;27.986;2024-02-28T03:44:18;17.77;;;6.68;;
10309;SDS011;5200;43.236;27.986;2024-02-28T03:46:46;11.13;;;6.05;;
10309;SDS011;5200;43.236;27.986;2024-02-28T03:49:14;18.67;;;6.82;;
10309;SDS011;5200;43.236;27.986;2024-02-28T03:51:41;16.55;;;7.22;;
10309;SDS011;5200;43.236;27.986;2024-02-28T03:54:08;21.38;;;7.90;;
10309;SDS011;5200;43.236;27.986;2024-02-28T03:56:35;19.08;;;7.18;;
10309;SDS011;5200;43.236;27.986;2024-02-28T03:59:02;18.75;;;8.60;;
10309;SDS011;5200;43.236;27.986;2024-02-28T04:01:29;25.35;;;8.35;;
10309;SDS011;5200;43.236;27.986;2024-02-28T04:03:56;20.30;;;8.40;;
10309;SDS011;5200;43.236;27.986;2024-02-28T04:06:25;15.23;;;7.97;;
10309;SDS011;5200;43.236;27.986;2024-02-28T04:08:51;16.73;;;7.93;;
10309;SDS011;5200;43.236;27.986;2024-02-28T04:11:18;25.73;;;8.13;;
10309;SDS011;5200;43.236;27.986;2024-02-28T04:13:46;26.10;;;8.63;;
10309;SDS011;5200;43.236;27.986;2024-02-28T04:16:12;14.77;;;7.88;;
10309;SDS011;5200;43.236;27.986;2024-02-28T04:18:39;16.50;;;7.75;;
10309;SDS011;5200;43.236;27.986;2024-02-28T04:21:06;16.65;;;7.95;;
10309;SDS011;5200;43.236;27.986;2024-02-28T04:23:35;27.30;;;9.52;;
10309;SDS011;5200;43.236;27.986;2024-02-28T04:26:03;29.17;;;9.98;;
10309;SDS011;5200;43.236;27.986;2024-02-28T04:28:30;18.63;;;7.18;;
10309;SDS011;5200;43.236;27.986;2024-02-28T04:30:56;22.80;;;7.68;;
10309;SDS011;5200;43.236;27.986;2024-02-28T04:33:23;20.33;;;7.13;;
10309;SDS011;5200;43.236;27.986;2024-02-28T04:35:50;14.90;;;7.20;;
10309;SDS011;5200;43.236;27.986;2024-02-28T04:38:17;21.70;;;8.55;;
10309;SDS011;5200;43.236;27.986;2024-02-28T04:40:45;28.45;;;9.15;;
10309;SDS011;5200;43.236;27.986;2024-02-28T04:43:12;20.67;;;8.68;;
10309;SDS011;5200;43.236;27.986;2024-02-28T04:45:39;18.55;;;7.97;;
10309;SDS011;5200;43.236;27.986;2024-02-28T04:48:06;15.65;;;8.95;;
10309;SDS011;5200;43.236;27.986;2024-02-28T04:50:33;22.88;;;9.75;;
10309;SDS011;5200;43.236;27.986;2024-02-28T04:53:00;18.60;;;8.73;;
10309;SDS011;5200;43.236;27.986;2024-02-28T04:55:27;16.63;;;7.43;;
10309;SDS011;5200;43.236;27.986;2024-02-28T04:57:55;22.52;;;8.35;;
10309;SDS011;5200;43.236;27.986;2024-02-28T05:00:22;15.98;;;8.55;;
10309;SDS011;5200;43.236;27.986;2024-02-28T05:02:49;16.92;;;7.97;;
10309;SDS011;5200;43.236;27.986;2024-02-28T05:05:16;16.27;;;8.40;;
10309;SDS011;5200;43.236;27.986;2024-02-28T05:07:42;23.85;;;11.13;;
10309;SDS011;5200;43.236;27.986;2024-02-28T05:10:09;22.60;;;11.50;;
10309;SDS011;5200;43.236;27.986;2024-02-28T05:12:36;26.15;;;12.70;;
10309;SDS011;5200;43.236;27.986;2024-02-28T05:15:05;20.58;;;12.77;;
10309;SDS011;5200;43.236;27.986;2024-02-28T05:17:32;24.30;;;8.23;;
10309;SDS011;5200;43.236;27.986;2024-02-28T05:19:59;17.00;;;11.55;;
10309;SDS011;5200;43.236;27.986;2024-02-28T05:22:26;24.13;;;11.70;;
10309;SDS011;5200;43.236;27.986;2024-02-28T05:24:53;23.95;;;10.93;;
10309;SDS011;5200;43.236;27.986;2024-02-28T05:27:19;22.98;;;12.43;;
10309;SDS011;5200;43.236;27.986;2024-02-28T05:29:47;18.67;;;11.88;;
10309;SDS011;5200;43.236;27.986;2024-02-28T05:32:15;22.88;;;14.43;;
10309;SDS011;5200;43.236;27.986;2024-02-28T05:34:42;25.67;;;15.43;;
10309;SDS011;5200;43.236;27.986;2024-02-28T05:37:09;25.25;;;16.88;;
10309;SDS011;5200;43.236;27.986;2024-02-28T05:39:36;14.95;;;8.88;;
10309;SDS011;5200;43.236;27.986;2024-02-28T05:42:03;16.48;;;8.55;;
10309;SDS011;5200;43.236;27.986;2024-02-28T05:44:30;15.27;;;9.30;;
10309;SDS011;5200;43.236;27.986;2024-02-28T05:46:57;18.42;;;7.68;;
10309;SDS011;5200;43.236;27.986;2024-02-28T05:49:25;18.85;;;8.07;;
10309;SDS011;5200;43.236;27.986;2024-02-28T05:51:52;16.42;;;7.55;;
10309;SDS011;5200;43.236;27.986;2024-02-28T05:54:19;17.55;;;6.70;;
10309;SDS011;5200;43.236;27.986;2024-02-28T05:56:46;19.70;;;7.10;;
10309;SDS011;5200;43.236;27.986;2024-02-28T05:59:13;15.60;;;7.53;;
10309;SDS011;5200;43.236;27.986;2024-02-28T06:01:40;15.95;;;7.43;;
10309;SDS011;5200;43.236;27.986;2024-02-28T06:04:07;13.02;;;6.28;;
10309;SDS011;5200;43.236;27.986;2024-02-28T06:06:35;14.55;;;7.05;;
10309;SDS011;5200;43.236;27.986;2024-02-28T06:09:02;11.18;;;6.60;;
10309;SDS011;5200;43.236;27.986;2024-02-28T06:11:29;13.77;;;6.18;;
10309;SDS011;5200;43.236;27.986;2024-02-28T06:13:56;8.50;;;5.82;;
10309;SDS011;5200;43.236;27.986;2024-02-28T06:16:23;14.13;;;6.05;;
10309;SDS011;5200;43.236;27.986;2024-02-28T06:18:50;11.82;;;6.18;;
10309;SDS011;5200;43.236;27.986;2024-02-28T06:21:16;13.35;;;5.32;;
10309;SDS011;5200;43.236;27.986;2024-02-28T06:23:45;20.77;;;6.38;;
10309;SDS011;5200;43.236;27.986;2024-02-28T06:26:11;15.15;;;5.88;;
10309;SDS011;5200;43.236;27.986;2024-02-28T06:28:42;12.73;;;5.57;;
10309;SDS011;5200;43.236;27.986;2024-02-28T06:31:14;15.88;;;5.45;;
10309;SDS011;5200;43.236;27.986;2024-02-28T06:33:41;14.77;;;5.22;;
10309;SDS011;5200;43.236;27.986;2024-02-28T06:36:08;11.77;;;5.15;;
10309;SDS011;5200;43.236;27.986;2024-02-28T06:38:35;12.93;;;4.55;;
10309;SDS011;5200;43.236;27.986;2024-02-28T06:41:04;15.10;;;4.32;;
10309;SDS011;5200;43.236;27.986;2024-02-28T06:43:33;14.15;;;4.80;;
10309;SDS011;5200;43.236;27.986;2024-02-28T06:46:00;15.35;;;4.70;;
10309;SDS011;5200;43.236;27.986;2024-02-28T06:48:27;12.70;;;4.10;;
10309;SDS011;5200;43.236;27.986;2024-02-28T06:50:55;11.52;;;4.20;;
10309;SDS011;5200;43.236;27.986;2024-02-28T06:53:23;12.00;;;4.30;;
10309;SDS011;5200;43.236;27.986;2024-02-28T06:55:50;10.10;;;4.60;;
10309;SDS011;5200;43.236;27.986;2024-02-28T06:58:20;13.30;;;4.20;;
10309;SDS011;5200;43.236;27.986;2024-02-28T07:00:48;15.10;;;4.53;;
10309;SDS011;5200;43.236;27.986;2024-02-28T07:03:16;11.10;;;3.58;;
10309;SDS011;5200;43.236;27.986;2024-02-28T07:05:43;13.40;;;4.50;;
10309;SDS011;5200;43.236;27.986;2024-02-28T07:08:10;11.02;;;4.20;;
10309;SDS011;5200;43.236;27.986;2024-02-28T07:10:37;16.08;;;4.82;;
10309;SDS011;5200;43.236;27.986;2024-02-28T07:13:08;7.97;;;3.58;;
10309;SDS011;5200;43.236;27.986;2024-02-28T07:15:37;13.45;;;4.70;;
10309;SDS011;5200;43.236;27.986;2024-02-28T07:18:07;11.25;;;3.78;;
10309;SDS011;5200;43.236;27.986;2024-02-28T07:20:34;9.38;;;3.72;;
10309;SDS011;5200;43.236;27.986;2024-02-28T07:23:01;12.98;;;4.00;;
10309;SDS011;5200;43.236;27.986;2024-02-28T07:25:28;9.95;;;3.28;;
10309;SDS011;5200;43.236;27.986;2024-02-28T07:27:57;15.32;;;4.63;;
10309;SDS011;5200;43.236;27.986;2024-02-28T07:30:25;15.70;;;4.15;;
10309;SDS011;5200;43.236;27.986;2024-02-28T07:32:53;14.40;;;5.50;;
10309;SDS011;5200;43.236;27.986;2024-02-28T07:35:20;11.88;;;4.18;;
10309;SDS011;5200;43.236;27.986;2024-02-28T07:37:49;14.80;;;3.85;;
10309;SDS011;5200;43.236;27.986;2024-02-28T07:40:15;13.15;;;3.83;;
10309;SDS011;5200;43.236;27.986;2024-02-28T07:42:43;17.52;;;4.60;;
10309;SDS011;5200;43.236;27.986;2024-02-28T07:45:10;13.15;;;4.30;;
10309;SDS011;5200;43.236;27.986;2024-02-28T07:47:37;9.60;;;3.58;;
10309;SDS011;5200;43.236;27.986;2024-02-28T07:50:07;12.43;;;3.67;;
10309;SDS011;5200;43.236;27.986;2024-02-28T07:52:34;9.52;;;3.78;;
10309;SDS011;5200;43.236;27.986;2024-02-28T07:55:02;5.90;;;3.10;;
10309;SDS011;5200;43.236;27.986;2024-02-28T07:57:30;10.75;;;3.65;;
10309;SDS011;5200;43.236;27.986;2024-02-28T07:59:58;10.85;;;3.05;;
10309;SDS011;5200;43.236;27.986;2024-02-28T08:02:26;12.00;;;3.92;;
10309;SDS011;5200;43.236;27.986;2024-02-28T08:04:53;11.70;;;3.20;;
10309;SDS011;5200;43.236;27.986;2024-02-28T08:07:22;10.00;;;4.07;;
10309;SDS011;5200;43.236;27.986;2024-02-28T08:09:48;10.65;;;4.00;;
10309;SDS011;5200;43.236;27.986;2024-02-28T08:12:15;10.30;;;4.65;;
10309;SDS011;5200;43.236;27.986;2024-02-28T08:14:42;13.57;;;3.92;;
10309;SDS011;5200;43.236;27.986;2024-02-28T08:17:09;13.15;;;3.95;;
10309;SDS011;5200;43.236;27.986;2024-02-28T08:19:38;12.85;;;4.50;;
10309;SDS011;5200;43.236;27.986;2024-02-28T08:22:07;9.77;;;3.60;;
10309;SDS011;5200;43.236;27.986;2024-02-28T08:24:35;12.13;;;3.65;;
10309;SDS011;5200;43.236;27.986;2024-02-28T08:27:02;14.32;;;3.92;;
10309;SDS011;5200;43.236;27.986;2024-02-28T08:29:29;13.13;;;4.00;;
10309;SDS011;5200;43.236;27.986;2024-02-28T08:31:57;12.45;;;3.80;;
10309;SDS011;5200;43.236;27.986;2024-02-28T08:34:24;14.70;;;4.35;;
10309;SDS011;5200;43.236;27.986;2024-02-28T08:36:51;9.38;;;4.03;;
10309;SDS011;5200;43.236;27.986;2024-02-28T08:39:18;12.68;;;3.80;;
10309;SDS011;5200;43.236;27.986;2024-02-28T08:41:46;8.75;;;3.30;;
10309;SDS011;5200;43.236;27.986;2024-02-28T08:44:13;11.73;;;4.40;;
10309;SDS011;5200;43.236;27.986;2024-02-28T08:46:40;14.35;;;3.72;;
10309;SDS011;5200;43.236;27.986;2024-02-28T08:49:07;9.27;;;3.45;;
10309;SDS011;5200;43.236;27.986;2024-02-28T08:51:34;9.35;;;3.65;;
10309;SDS011;5200;43.236;27.986;2024-02-28T08:54:00;13.13;;;4.00;;
10309;SDS011;5200;43.236;27.986;2024-02-28T08:56:28;11.07;;;3.95;;
10309;SDS011;5200;43.236;27.986;2024-02-28T08:58:57;14.40;;;4.85;;
10309;SDS011;5200;43.236;27.986;2024-02-28T09:01:24;11.90;;;4.10;;
10309;SDS011;5200;43.236;27.986;2024-02-28T09:03:51;19.13;;;4.68;;
10309;SDS011;5200;43.236;27.986;2024-02-28T09:06:17;8.82;;;3.70;;
10309;SDS011;5200;43.236;27.986;2024-02-28T09:08:44;12.88;;;4.40;;
10309;SDS011;5200;43.236;27.986;2024-02-28T09:11:11;11.30;;;4.00;;
10309;SDS011;5200;43.236;27.986;2024-02-28T09:13:38;12.60;;;4.93;;
10309;SDS011;5200;43.236;27.986;2024-02-28T09:16:06;12.00;;;4.07;;
10309;SDS011;5200;43.236;27.986;2024-02-28T09:18:33;24.45;;;4.65;;
10309;SDS011;5200;43.236;27.986;2024-02-28T09:21:00;9.50;;;3.95;;
10309;SDS011;5200;43.236;27.986;2024-02-28T09:23:27;18.25;;;4.70;;
10309;SDS011;5200;43.236;27.986;2024-02-28T09:25:54;11.23;;;3.78;;
10309;SDS011;5200;43.236;27.986;2024-02-28T09:28:21;10.35;;;4.22;;
10309;SDS011;5200;43.236;27.986;2024-02-28T09:30:48;12.40;;;4.40;;
10309;SDS011;5200;43.236;27.986;2024-02-28T09:33:17;11.30;;;3.97;;
10309;SDS011;5200;43.236;27.986;2024-02-28T09:35:44;15.45;;;4.38;;
10309;SDS011;5200;43.236;27.986;2024-02-28T09:38:11;10.90;;;4.03;;
10309;SDS011;5200;43.236;27.986;2024-02-28T09:40:38;12.45;;;4.65;;
10309;SDS011;5200;43.236;27.986;2024-02-28T09:43:05;13.88;;;4.65;;
10309;SDS011;5200;43.236;27.986;2024-02-28T09:45:37;14.68;;;4.55;;
10309;SDS011;5200;43.236;27.986;2024-02-28T09:48:06;13.35;;;4.57;;
10309;SDS011;5200;43.236;27.986;2024-02-28T09:50:36;14.52;;;4.53;;
10309;SDS011;5200;43.236;27.986;2024-02-28T09:53:05;10.50;;;4.50;;
10309;SDS011;5200;43.236;27.986;2024-02-28T09:55:32;12.55;;;4.35;;
10309;SDS011;5200;43.236;27.986;2024-02-28T09:57:58;10.25;;;3.85;;
10309;SDS011;5200;43.236;27.986;2024-02-28T10:00:27;10.48;;;4.22;;
10309;SDS011;5200;43.236;27.986;2024-02-28T10:02:54;19.75;;;4.47;;
10309;SDS011;5200;43.236;27.986;2024-02-28T10:05:23;13.13;;;4.50;;
10309;SDS011;5200;43.236;27.986;2024-02-28T10:07:53;13.80;;;4.38;;
10309;SDS011;5200;43.236;27.986;2024-02-28T10:10:21;13.38;;;4.63;;
10309;SDS011;5200;43.236;27.986;2024-02-28T10:12:48;14.20;;;4.72;;
10309;SDS011;5200;43.236;27.986;2024-02-28T10:15:15;12.73;;;4.28;;
10309;SDS011;5200;43.236;27.986;2024-02-28T10:17:42;10.85;;;4.25;;
10309;SDS011;5200;43.236;27.986;2024-02-28T10:20:09;12.52;;;4.45;;
10309;SDS011;5200;43.236;27.986;2024-02-28T10:22:37;15.45;;;4.95;;
10309;SDS011;5200;43.236;27.986;2024-02-28T10:25:06;13.52;;;5.25;;
10309;SDS011;5200;43.236;27.986;2024-02-28T10:27:33;11.52;;;4.85;;
10309;SDS011;5200;43.236;27.986;2024-02-28T10:30:00;10.68;;;4.50;;
10309;SDS011;5200;43.236;27.986;2024-02-28T10:32:30;10.98;;;4.50;;
10309;SDS011;5200;43.236;27.986;2024-02-28T10:34:57;10.32;;;4.05;;
10309;SDS011;5200;43.236;27.986;2024-02-28T10:37:25;16.40;;;4.55;;
10309;SDS011;5200;43.236;27.986;2024-02-28T10:39:55;18.00;;;5.22;;
10309;SDS011;5200;43.236;27.986;2024-02-28T10:42:25;14.43;;;4.70;;
10309;SDS011;5200;43.236;27.986;2024-02-28T10:44:53;11.70;;;4.60;;
10309;SDS011;5200;43.236;27.986;2024-02-28T10:47:24;14.05;;;5.00;;
10309;SDS011;5200;43.236;27.986;2024-02-28T10:49:51;15.57;;;5.30;;
10309;SDS011;5200;43.236;27.986;2024-02-28T10:52:18;15.98;;;5.45;;
10309;SDS011;5200;43.236;27.986;2024-02-28T10:54:50;12.00;;;4.88;;
10309;SDS011;5200;43.236;27.986;2024-02-28T10:57:20;14.70;;;5.60;;
10309;SDS011;5200;43.236;27.986;2024-02-28T10:59:51;15.93;;;4.80;;
10309;SDS011;5200;43.236;27.986;2024-02-28T11:02:20;15.38;;;4.78;;
10309;SDS011;5200;43.236;27.986;2024-02-28T11:04:49;14.80;;;4.30;;
10309;SDS011;5200;43.236;27.986;2024-02-28T11:07:19;13.55;;;5.38;;
10309;SDS011;5200;43.236;27.986;2024-02-28T11:09:47;12.18;;;4.72;;
10309;SDS011;5200;43.236;27.986;2024-02-28T11:12:23;13.45;;;5.03;;
10309;SDS011;5200;43.236;27.986;2024-02-28T11:14:58;14.20;;;4.82;;
10309;SDS011;5200;43.236;27.986;2024-02-28T11:17:26;12.95;;;4.70;;
10309;SDS011;5200;43.236;27.986;2024-02-28T11:19:54;12.82;;;4.90;;
10309;SDS011;5200;43.236;27.986;2024-02-28T11:22:21;12.80;;;4.65;;
10309;SDS011;5200;43.236;27.986;2024-02-28T11:24:48;14.93;;;5.50;;
10309;SDS011;5200;43.236;27.986;2024-02-28T11:27:16;9.48;;;4.57;;
10309;SDS011;5200;43.236;27.986;2024-02-28T11:29:43;13.85;;;4.97;;
10309;SDS011;5200;43.236;27.986;2024-02-28T11:32:13;14.80;;;5.18;;
10309;SDS011;5200;43.236;27.986;2024-02-28T11:34:41;10.70;;;5.63;;
10309;SDS011;5200;43.236;27.986;2024-02-28T11:37:09;15.82;;;4.95;;
10309;SDS011;5200;43.236;27.986;2024-02-28T11:39:36;14.27;;;5.22;;
10309;SDS011;5200;43.236;27.986;2024-02-28T11:42:10;13.65;;;5.03;;
10309;SDS011;5200;43.236;27.986;2024-02-28T11:44:38;11.32;;;4.65;;
10309;SDS011;5200;43.236;27.986;2024-02-28T11:47:05;17.27;;;4.78;;
10309;SDS011;5200;43.236;27.986;2024-02-28T11:49:36;17.13;;;5.40;;
10309;SDS011;5200;43.236;27.986;2024-02-28T11:52:04;11.07;;;4.20;;
10309;SDS011;5200;43.236;27.986;2024-02-28T11:54:31;14.20;;;5.45;;
10309;SDS011;5200;43.236;27.986;2024-02-28T11:56:58;12.38;;;4.65;;
10309;SDS011;5200;43.236;27.986;2024-02-28T11:59:24;16.33;;;5.35;;
10309;SDS011;5200;43.236;27.986;2024-02-28T12:01:51;21.63;;;5.35;;
10309;SDS011;5200;43.236;27.986;2024-02-28T12:04:20;19.02;;;5.82;;
10309;SDS011;5200;43.236;27.986;2024-02-28T12:06:51;16.33;;;5.30;;
10309;SDS011;5200;43.236;27.986;2024-02-28T12:09:18;17.42;;;5.60;;
10309;SDS011;5200;43.236;27.986;2024-02-28T12:11:45;20.35;;;6.20;;
10309;SDS011;5200;43.236;27.986;2024-02-28T12:14:12;12.13;;;5.43;;
10309;SDS011;5200;43.236;27.986;2024-02-28T12:16:39;23.85;;;6.10;;
10309;SDS011;5200;43.236;27.986;2024-02-28T12:19:07;19.30;;;5.88;;
10309;SDS011;5200;43.236;27.986;2024-02-28T12:21:35;15.68;;;5.45;;
10309;SDS011;5200;43.236;27.986;2024-02-28T12:24:04;12.00;;;5.93;;
10309;SDS011;5200;43.236;27.986;2024-02-28T12:26:31;17.00;;;5.68;;
10309;SDS011;5200;43.236;27.986;2024-02-28T12:28:58;13.18;;;4.97;;
10309;SDS011;5200;43.236;27.986;2024-02-28T12:31:26;17.52;;;5.85;;
10309;SDS011;5200;43.236;27.986;2024-02-28T12:33:53;14.82;;;6.22;;
10309;SDS011;5200;43.236;27.986;2024-02-28T12:36:20;17.95;;;7.05;;
10309;SDS011;5200;43.236;27.986;2024-02-28T12:38:47;12.48;;;5.63;;
10309;SDS011;5200;43.236;27.986;2024-02-28T12:41:15;23.13;;;6.50;;
10309;SDS011;5200;43.236;27.986;2024-02-28T12:43:42;13.85;;;5.95;;
10309;SDS011;5200;43.236;27.986;2024-02-28T12:46:09;12.43;;;4.85;;
10309;SDS011;5200;43.236;27.986;2024-02-28T12:48:37;25.25;;;6.45;;
10309;SDS011;5200;43.236;27.986;2024-02-28T12:51:04;26.77;;;7.38;;
10309;SDS011;5200;43.236;27.986;2024-02-28T12:53:31;13.82;;;6.05;;
10309;SDS011;5200;43.236;27.986;2024-02-28T12:55:58;21.05;;;6.00;;
10309;SDS011;5200;43.236;27.986;2024-02-28T12:58:26;23.85;;;6.22;;
10309;SDS011;5200;43.236;27.986;2024-02-28T13:00:53;15.45;;;4.95;;
10309;SDS011;5200;43.236;27.986;2024-02-28T13:03:20;13.63;;;5.80;;
10309;SDS011;5200;43.236;27.986;2024-02-28T13:05:47;18.02;;;5.70;;
10309;SDS011;5200;43.236;27.986;2024-02-28T13:08:14;10.50;;;4.82;;
10309;SDS011;5200;43.236;27.986;2024-02-28T13:10:41;12.85;;;5.65;;
10309;SDS011;5200;43.236;27.986;2024-02-28T13:13:08;11.40;;;5.38;;
10309;SDS011;5200;43.236;27.986;2024-02-28T13:15:37;17.08;;;5.80;;
10309;SDS011;5200;43.236;27.986;2024-02-28T13:18:04;24.23;;;7.63;;
10309;SDS011;5200;43.236;27.986;2024-02-28T13:20:34;21.05;;;6.40;;
10309;SDS011;5200;43.236;27.986;2024-02-28T13:23:03;21.85;;;6.93;;
10309;SDS011;5200;43.236;27.986;2024-02-28T13:25:30;15.85;;;5.75;;
10309;SDS011;5200;43.236;27.986;2024-02-28T13:27:57;17.60;;;6.80;;
10309;SDS011;5200;43.236;27.986;2024-02-28T13:30:23;12.40;;;4.80;;
10309;SDS011;5200;43.236;27.986;2024-02-28T13:32:52;17.63;;;5.28;;
10309;SDS011;5200;43.236;27.986;2024-02-28T13:35:19;16.08;;;6.88;;
10309;SDS011;5200;43.236;27.986;2024-02-28T13:37:45;17.75;;;5.95;;
10309;SDS011;5200;43.236;27.986;2024-02-28T13:40:12;19.42;;;9.95;;
10309;SDS011;5200;43.236;27.986;2024-02-28T13:42:39;14.70;;;6.72;;
10309;SDS011;5200;43.236;27.986;2024-02-28T13:45:06;12.32;;;5.93;;
10309;SDS011;5200;43.236;27.986;2024-02-28T13:47:34;13.35;;;4.97;;
10309;SDS011;5200;43.236;27.986;2024-02-28T13:50:03;21.90;;;6.00;;
10309;SDS011;5200;43.236;27.986;2024-02-28T13:52:30;18.85;;;6.43;;
10309;SDS011;5200;43.236;27.986;2024-02-28T13:54:57;12.13;;;5.32;;
10309;SDS011;5200;43.236;27.986;2024-02-28T13:57:23;14.43;;;5.72;;
10309;SDS011;5200;43.236;27.986;2024-02-28T13:59:50;19.35;;;6.05;;
10309;SDS011;5200;43.236;27.986;2024-02-28T14:02:19;16.48;;;5.88;;
10309;SDS011;5200;43.236;27.986;2024-02-28T14:04:46;25.95;;;6.10;;
10309;SDS011;5200;43.236;27.986;2024-02-28T14:07:15;18.02;;;6.28;;
10309;SDS011;5200;43.236;27.986;2024-02-28T14:09:42;18.30;;;6.80;;
10309;SDS011;5200;43.236;27.986;2024-02-28T14:12:11;21.55;;;6.20;;
10309;SDS011;5200;43.236;27.986;2024-02-28T14:14:38;14.73;;;5.82;;
10309;SDS011;5200;43.236;27.986;2024-02-28T14:17:05;14.88;;;5.95;;
10309;SDS011;5200;43.236;27.986;2024-02-28T14:19:32;16.20;;;6.00;;
10309;SDS011;5200;43.236;27.986;2024-02-28T14:22:00;18.98;;;7.35;;
10309;SDS011;5200;43.236;27.986;2024-02-28T14:24:29;20.65;;;7.60;;
10309;SDS011;5200;43.236;27.986;2024-02-28T14:26:55;19.25;;;6.60;;
10309;SDS011;5200;43.236;27.986;2024-02-28T14:29:22;24.95;;;6.00;;
10309;SDS011;5200;43.236;27.986;2024-02-28T14:31:49;25.08;;;8.38;;
10309;SDS011;5200;43.236;27.986;2024-02-28T14:34:16;17.10;;;7.68;;
10309;SDS011;5200;43.236;27.986;2024-02-28T14:36:43;25.58;;;7.57;;